EWG14PJ EPKK-EDDL
Flight info
| Callsign | EWG14PJ |
|---|---|
| Flight time | 1h 23m |
| Altitude | 38000 |
| Route | OMFOL DCT DINOV DCT NAROX DCT TOLTA DCT APEBE L602 HMM T851 HALME |
| Aircraft | A319/M-SDE3FGHIRWY/LB1 |
Departure
| Time | 2026-05-01 13:17 |
|---|---|
| Airport | Kraków John Paul II International Airport (EPKK) |
Arrival
| Time | 2026-05-01 14:40 |
|---|---|
| Airport | Düsseldorf Airport (EDDL) |
| Time | Latitude | Longitude | Altitude | Speed | Heading |
|---|---|---|---|---|---|
| 2026-05-01 12:59 | 50.07488 | 19.80214 | 791 ft | 0 kts | 168° |
| 2026-05-01 13:13 | 50.07471 | 19.80220 | 789 ft | 4 kts | 168° |
| 2026-05-01 13:13 | 50.07438 | 19.80255 | 789 ft | 7 kts | 110° |
| 2026-05-01 13:13 | 50.07448 | 19.80352 | 789 ft | 11 kts | 66° |
| 2026-05-01 13:13 | 50.07525 | 19.80406 | 789 ft | 14 kts | 16° |
| 2026-05-01 13:14 | 50.07623 | 19.80413 | 789 ft | 15 kts | 347° |
| 2026-05-01 13:14 | 50.07725 | 19.80378 | 789 ft | 15 kts | 347° |
| 2026-05-01 13:14 | 50.07811 | 19.80348 | 789 ft | 9 kts | 347° |
| 2026-05-01 13:14 | 50.07862 | 19.80330 | 789 ft | 8 kts | 348° |
| 2026-05-01 13:15 | 50.07918 | 19.80311 | 789 ft | 9 kts | 347° |
| 2026-05-01 13:15 | 50.07989 | 19.80280 | 788 ft | 11 kts | 329° |
| 2026-05-01 13:15 | 50.08010 | 19.80172 | 789 ft | 11 kts | 259° |
| 2026-05-01 13:15 | 50.07994 | 19.80057 | 789 ft | 11 kts | 257° |
| 2026-05-01 13:16 | 50.07974 | 19.79916 | 788 ft | 21 kts | 257° |
| 2026-05-01 13:16 | 50.07888 | 19.79283 | 789 ft | 96 kts | 258° |
| 2026-05-01 13:16 | 50.07703 | 19.77954 | 789 ft | 156 kts | 258° |
| 2026-05-01 13:17 | 50.06993 | 19.72877 | 2611 ft | 171 kts | 262° |
| 2026-05-01 13:17 | 50.06725 | 19.70950 | 3049 ft | 192 kts | 262° |
| 2026-05-01 13:18 | 50.06097 | 19.66405 | 3955 ft | 237 kts | 261° |
| 2026-05-01 13:18 | 50.05729 | 19.63774 | 4564 ft | 258 kts | 261° |
| 2026-05-01 13:18 | 50.05336 | 19.60985 | 5486 ft | 266 kts | 260° |
| 2026-05-01 13:18 | 50.04933 | 19.58147 | 6438 ft | 271 kts | 260° |
| 2026-05-01 13:19 | 50.04520 | 19.55252 | 7351 ft | 277 kts | 260° |
| 2026-05-01 13:19 | 50.04096 | 19.52283 | 8190 ft | 285 kts | 261° |
| 2026-05-01 13:19 | 50.03222 | 19.46120 | 9859 ft | 299 kts | 262° |
| 2026-05-01 13:20 | 50.02982 | 19.42891 | 10606 ft | 301 kts | 275° |
| 2026-05-01 13:20 | 50.03220 | 19.39617 | 11100 ft | 313 kts | 289° |
| 2026-05-01 13:20 | 50.03982 | 19.36370 | 11459 ft | 327 kts | 300° |
| 2026-05-01 13:21 | 50.05846 | 19.29724 | 12902 ft | 341 kts | 299° |
| 2026-05-01 13:21 | 50.06779 | 19.26297 | 13663 ft | 347 kts | 299° |
| 2026-05-01 13:21 | 50.07724 | 19.22802 | 14388 ft | 352 kts | 299° |
| 2026-05-01 13:21 | 50.08679 | 19.19262 | 15055 ft | 356 kts | 299° |
| 2026-05-01 13:22 | 50.09647 | 19.15687 | 15722 ft | 360 kts | 299° |
| 2026-05-01 13:22 | 50.10630 | 19.12073 | 16392 ft | 364 kts | 299° |
| 2026-05-01 13:22 | 50.11623 | 19.08423 | 17048 ft | 368 kts | 299° |
| 2026-05-01 13:22 | 50.12292 | 19.05975 | 17478 ft | 371 kts | 300° |
| 2026-05-01 13:23 | 50.13307 | 19.02256 | 18142 ft | 375 kts | 299° |
| 2026-05-01 13:23 | 50.14328 | 18.98495 | 18776 ft | 379 kts | 300° |
| 2026-05-01 13:23 | 50.15361 | 18.94687 | 19351 ft | 383 kts | 299° |
| 2026-05-01 13:23 | 50.16399 | 18.90845 | 19929 ft | 386 kts | 299° |
| 2026-05-01 13:24 | 50.17444 | 18.86965 | 20514 ft | 390 kts | 299° |
| 2026-05-01 13:24 | 50.18498 | 18.83041 | 21070 ft | 394 kts | 299° |
| 2026-05-01 13:24 | 50.19559 | 18.79082 | 21659 ft | 397 kts | 299° |
| 2026-05-01 13:25 | 50.21714 | 18.71046 | 22780 ft | 405 kts | 299° |
| 2026-05-01 13:25 | 50.22807 | 18.66968 | 23344 ft | 409 kts | 299° |
| 2026-05-01 13:25 | 50.23908 | 18.62859 | 23898 ft | 412 kts | 299° |
| 2026-05-01 13:25 | 50.25017 | 18.58710 | 24345 ft | 415 kts | 299° |
| 2026-05-01 13:26 | 50.26131 | 18.54527 | 24816 ft | 418 kts | 299° |
| 2026-05-01 13:26 | 50.27248 | 18.50312 | 25269 ft | 420 kts | 299° |
| 2026-05-01 13:26 | 50.28369 | 18.46080 | 25718 ft | 423 kts | 299° |
| 2026-05-01 13:26 | 50.29497 | 18.41815 | 26171 ft | 425 kts | 299° |
| 2026-05-01 13:27 | 50.30628 | 18.37529 | 26613 ft | 427 kts | 299° |
| 2026-05-01 13:27 | 50.31765 | 18.33219 | 27046 ft | 430 kts | 298° |
| 2026-05-01 13:27 | 50.34053 | 18.24526 | 27900 ft | 434 kts | 298° |
| 2026-05-01 13:28 | 50.36358 | 18.15717 | 28746 ft | 439 kts | 298° |
| 2026-05-01 13:28 | 50.37520 | 18.11274 | 29169 ft | 442 kts | 298° |
| 2026-05-01 13:29 | 50.39840 | 18.02368 | 29975 ft | 447 kts | 298° |
| 2026-05-01 13:29 | 50.42188 | 17.93303 | 30694 ft | 451 kts | 298° |
| 2026-05-01 13:30 | 50.47019 | 17.74913 | 32040 ft | 455 kts | 300° |
| 2026-05-01 13:31 | 50.49616 | 17.65922 | 32984 ft | 450 kts | 301° |
| 2026-05-01 13:31 | 50.53452 | 17.52626 | 34371 ft | 445 kts | 300° |
| 2026-05-01 13:32 | 50.55951 | 17.43751 | 35141 ft | 442 kts | 300° |
| 2026-05-01 13:33 | 50.59650 | 17.30508 | 36168 ft | 439 kts | 299° |
| 2026-05-01 13:33 | 50.62099 | 17.21721 | 36803 ft | 438 kts | 299° |
| 2026-05-01 13:34 | 50.64539 | 17.12961 | 37419 ft | 436 kts | 299° |
| 2026-05-01 13:34 | 50.66968 | 17.04227 | 38000 ft | 434 kts | 298° |
| 2026-05-01 13:35 | 50.69381 | 16.95495 | 38344 ft | 433 kts | 298° |
| 2026-05-01 13:35 | 50.70580 | 16.91139 | 38344 ft | 432 kts | 298° |
| 2026-05-01 13:36 | 50.74146 | 16.78092 | 38350 ft | 431 kts | 298° |
| 2026-05-01 13:36 | 50.77709 | 16.65032 | 38351 ft | 431 kts | 298° |
| 2026-05-01 13:37 | 50.80073 | 16.56314 | 38343 ft | 431 kts | 297° |
| 2026-05-01 13:37 | 50.82430 | 16.47593 | 38350 ft | 431 kts | 297° |
| 2026-05-01 13:38 | 50.85961 | 16.34495 | 38345 ft | 431 kts | 297° |
| 2026-05-01 13:39 | 50.88299 | 16.25749 | 38345 ft | 431 kts | 297° |
| 2026-05-01 13:39 | 50.90628 | 16.16991 | 38351 ft | 431 kts | 297° |
| 2026-05-01 13:40 | 50.92946 | 16.08239 | 38354 ft | 431 kts | 297° |
| 2026-05-01 13:40 | 50.95251 | 15.99462 | 38364 ft | 431 kts | 296° |
| 2026-05-01 13:41 | 50.97532 | 15.90678 | 38361 ft | 431 kts | 296° |
| 2026-05-01 13:41 | 50.99802 | 15.81879 | 38364 ft | 430 kts | 296° |
| 2026-05-01 13:42 | 51.02070 | 15.73084 | 38363 ft | 430 kts | 296° |
| 2026-05-01 13:42 | 51.04331 | 15.64289 | 38365 ft | 430 kts | 296° |
| 2026-05-01 13:43 | 51.06580 | 15.55484 | 38367 ft | 430 kts | 296° |
| 2026-05-01 13:43 | 51.08826 | 15.46678 | 38365 ft | 430 kts | 296° |
| 2026-05-01 13:44 | 51.11064 | 15.37866 | 38370 ft | 429 kts | 296° |
| 2026-05-01 13:44 | 51.13293 | 15.29051 | 38369 ft | 429 kts | 295° |
| 2026-05-01 13:45 | 51.15516 | 15.20230 | 38370 ft | 429 kts | 295° |
| 2026-05-01 13:45 | 51.17729 | 15.11393 | 38371 ft | 429 kts | 295° |
| 2026-05-01 13:46 | 51.19915 | 15.02541 | 38375 ft | 430 kts | 291° |
| 2026-05-01 13:46 | 51.21189 | 14.93174 | 38372 ft | 434 kts | 283° |
| 2026-05-01 13:47 | 51.22245 | 14.83703 | 38375 ft | 434 kts | 283° |
| 2026-05-01 13:47 | 51.23299 | 14.74240 | 38376 ft | 434 kts | 283° |
| 2026-05-01 13:48 | 51.24346 | 14.64763 | 38384 ft | 433 kts | 283° |
| 2026-05-01 13:48 | 51.25386 | 14.55281 | 38383 ft | 433 kts | 283° |
| 2026-05-01 13:49 | 51.26410 | 14.45786 | 38383 ft | 433 kts | 283° |
| 2026-05-01 13:49 | 51.27419 | 14.36302 | 38383 ft | 433 kts | 283° |
| 2026-05-01 13:50 | 51.28424 | 14.26810 | 38387 ft | 434 kts | 282° |
| 2026-05-01 13:50 | 51.29425 | 14.17308 | 38383 ft | 434 kts | 282° |
| 2026-05-01 13:51 | 51.30423 | 14.07794 | 38383 ft | 434 kts | 282° |
| 2026-05-01 13:51 | 51.31406 | 13.98289 | 38381 ft | 434 kts | 282° |
| 2026-05-01 13:52 | 51.32382 | 13.88770 | 38381 ft | 434 kts | 282° |
| 2026-05-01 13:52 | 51.33347 | 13.79304 | 38387 ft | 434 kts | 282° |
| 2026-05-01 13:53 | 51.34316 | 13.69783 | 38388 ft | 434 kts | 282° |
| 2026-05-01 13:53 | 51.35752 | 13.55492 | 38388 ft | 434 kts | 282° |
| 2026-05-01 13:54 | 51.36693 | 13.45943 | 38390 ft | 434 kts | 282° |
| 2026-05-01 13:54 | 51.37623 | 13.36404 | 38394 ft | 434 kts | 281° |
| 2026-05-01 13:55 | 51.38553 | 13.26856 | 38393 ft | 434 kts | 281° |
| 2026-05-01 13:55 | 51.39483 | 13.17318 | 38394 ft | 434 kts | 281° |
| 2026-05-01 13:56 | 51.40388 | 13.07766 | 38397 ft | 433 kts | 281° |
| 2026-05-01 13:56 | 51.41282 | 12.98230 | 38398 ft | 433 kts | 281° |
| 2026-05-01 13:57 | 51.42037 | 12.90291 | 38397 ft | 433 kts | 281° |
| 2026-05-01 13:57 | 51.43085 | 12.79146 | 38398 ft | 433 kts | 281° |
| 2026-05-01 13:58 | 51.43964 | 12.69590 | 38403 ft | 432 kts | 281° |
| 2026-05-01 13:58 | 51.44832 | 12.60104 | 38417 ft | 432 kts | 281° |
| 2026-05-01 13:59 | 51.45701 | 12.50550 | 38410 ft | 432 kts | 280° |
| 2026-05-01 13:59 | 51.46545 | 12.41056 | 38428 ft | 432 kts | 280° |
| 2026-05-01 14:00 | 51.47392 | 12.31511 | 38382 ft | 431 kts | 280° |
| 2026-05-01 14:00 | 51.48231 | 12.21963 | 38392 ft | 431 kts | 280° |
| 2026-05-01 14:01 | 51.49059 | 12.12456 | 38390 ft | 431 kts | 279° |
| 2026-05-01 14:01 | 51.49751 | 12.04469 | 38387 ft | 431 kts | 279° |
| 2026-05-01 14:02 | 51.50572 | 11.94937 | 38388 ft | 431 kts | 279° |
| 2026-05-01 14:02 | 51.51375 | 11.85474 | 38391 ft | 431 kts | 279° |
| 2026-05-01 14:03 | 51.52170 | 11.75929 | 38394 ft | 431 kts | 279° |
| 2026-05-01 14:03 | 51.52959 | 11.66394 | 38398 ft | 430 kts | 279° |
| 2026-05-01 14:04 | 51.53733 | 11.56842 | 38394 ft | 430 kts | 279° |
| 2026-05-01 14:04 | 51.54505 | 11.47339 | 38385 ft | 430 kts | 279° |
| 2026-05-01 14:05 | 51.55275 | 11.37799 | 38388 ft | 430 kts | 278° |
| 2026-05-01 14:05 | 51.56038 | 11.28252 | 38390 ft | 430 kts | 278° |
| 2026-05-01 14:06 | 51.56795 | 11.18706 | 38388 ft | 430 kts | 278° |
| 2026-05-01 14:06 | 51.57539 | 11.09211 | 38387 ft | 430 kts | 278° |
| 2026-05-01 14:07 | 51.58275 | 10.99653 | 38385 ft | 430 kts | 278° |
| 2026-05-01 14:08 | 51.59371 | 10.85333 | 38385 ft | 430 kts | 278° |
| 2026-05-01 14:08 | 51.60089 | 10.75767 | 38387 ft | 430 kts | 278° |
| 2026-05-01 14:09 | 51.60800 | 10.66207 | 38387 ft | 430 kts | 278° |
| 2026-05-01 14:09 | 51.61512 | 10.56665 | 38387 ft | 430 kts | 278° |
| 2026-05-01 14:10 | 51.62205 | 10.47113 | 38384 ft | 429 kts | 277° |
| 2026-05-01 14:10 | 51.62878 | 10.37623 | 38376 ft | 429 kts | 277° |
| 2026-05-01 14:10 | 51.63214 | 10.32848 | 38031 ft | 429 kts | 277° |
| 2026-05-01 14:11 | 51.63552 | 10.28073 | 37619 ft | 429 kts | 277° |
| 2026-05-01 14:11 | 51.64228 | 10.18531 | 36819 ft | 430 kts | 277° |
| 2026-05-01 14:11 | 51.64562 | 10.13738 | 36425 ft | 431 kts | 277° |
| 2026-05-01 14:12 | 51.64894 | 10.08936 | 36036 ft | 429 kts | 277° |
| 2026-05-01 14:12 | 51.65222 | 10.04162 | 35656 ft | 427 kts | 276° |
| 2026-05-01 14:12 | 51.65545 | 9.99412 | 35285 ft | 425 kts | 276° |
| 2026-05-01 14:12 | 51.65866 | 9.94674 | 34906 ft | 423 kts | 276° |
| 2026-05-01 14:13 | 51.66184 | 9.89982 | 34550 ft | 421 kts | 276° |
| 2026-05-01 14:13 | 51.66397 | 9.86876 | 34305 ft | 419 kts | 276° |
| 2026-05-01 14:13 | 51.66813 | 9.80710 | 33755 ft | 416 kts | 276° |
| 2026-05-01 14:13 | 51.67118 | 9.76074 | 33344 ft | 414 kts | 276° |
| 2026-05-01 14:14 | 51.67416 | 9.71478 | 32942 ft | 412 kts | 276° |
| 2026-05-01 14:14 | 51.67711 | 9.66895 | 32540 ft | 409 kts | 276° |
| 2026-05-01 14:14 | 51.68007 | 9.62340 | 32154 ft | 407 kts | 276° |
| 2026-05-01 14:14 | 51.68296 | 9.57811 | 31766 ft | 405 kts | 276° |
| 2026-05-01 14:15 | 51.68582 | 9.53295 | 31387 ft | 403 kts | 276° |
| 2026-05-01 14:15 | 51.68872 | 9.48804 | 31012 ft | 401 kts | 276° |
| 2026-05-01 14:15 | 51.69199 | 9.44339 | 30642 ft | 400 kts | 277° |
| 2026-05-01 14:15 | 51.69553 | 9.39889 | 30251 ft | 398 kts | 277° |
| 2026-05-01 14:16 | 51.69913 | 9.35481 | 29830 ft | 396 kts | 277° |
| 2026-05-01 14:16 | 51.70268 | 9.31088 | 29445 ft | 394 kts | 277° |
| 2026-05-01 14:16 | 51.70609 | 9.26769 | 29059 ft | 393 kts | 277° |
| 2026-05-01 14:16 | 51.70946 | 9.22351 | 28662 ft | 391 kts | 277° |
| 2026-05-01 14:17 | 51.71267 | 9.18062 | 28290 ft | 389 kts | 276° |
| 2026-05-01 14:17 | 51.71589 | 9.13730 | 27910 ft | 388 kts | 276° |
| 2026-05-01 14:17 | 51.71908 | 9.09426 | 27538 ft | 386 kts | 276° |
| 2026-05-01 14:17 | 51.72224 | 9.05143 | 27173 ft | 384 kts | 276° |
| 2026-05-01 14:18 | 51.72535 | 9.00873 | 26811 ft | 382 kts | 276° |
| 2026-05-01 14:18 | 51.72843 | 8.96633 | 26455 ft | 380 kts | 276° |
| 2026-05-01 14:18 | 51.73151 | 8.92406 | 26102 ft | 378 kts | 276° |
| 2026-05-01 14:18 | 51.73356 | 8.89564 | 25868 ft | 377 kts | 276° |
| 2026-05-01 14:19 | 51.73754 | 8.84015 | 25410 ft | 375 kts | 276° |
| 2026-05-01 14:19 | 51.74054 | 8.79847 | 25309 ft | 373 kts | 276° |
| 2026-05-01 14:19 | 51.74390 | 8.75668 | 25267 ft | 375 kts | 278° |
| 2026-05-01 14:19 | 51.74813 | 8.71518 | 25013 ft | 373 kts | 280° |
| 2026-05-01 14:20 | 51.75287 | 8.67397 | 24774 ft | 372 kts | 281° |
| 2026-05-01 14:20 | 51.76263 | 8.59229 | 24289 ft | 368 kts | 281° |
| 2026-05-01 14:20 | 51.76732 | 8.55182 | 23882 ft | 365 kts | 280° |
| 2026-05-01 14:21 | 51.77183 | 8.51159 | 23403 ft | 363 kts | 280° |
| 2026-05-01 14:21 | 51.77615 | 8.47210 | 22963 ft | 361 kts | 279° |
| 2026-05-01 14:21 | 51.78047 | 8.43229 | 22524 ft | 359 kts | 279° |
| 2026-05-01 14:22 | 51.78903 | 8.35326 | 21671 ft | 355 kts | 279° |
| 2026-05-01 14:22 | 51.79327 | 8.31415 | 21258 ft | 353 kts | 278° |
| 2026-05-01 14:22 | 51.79746 | 8.27511 | 20842 ft | 351 kts | 278° |
| 2026-05-01 14:22 | 51.80157 | 8.23628 | 20428 ft | 350 kts | 278° |
| 2026-05-01 14:23 | 51.80568 | 8.19757 | 20018 ft | 349 kts | 278° |
| 2026-05-01 14:23 | 51.80979 | 8.15889 | 19604 ft | 348 kts | 278° |
| 2026-05-01 14:23 | 51.81387 | 8.12037 | 19201 ft | 347 kts | 278° |
| 2026-05-01 14:23 | 51.81783 | 8.08298 | 18806 ft | 347 kts | 278° |
| 2026-05-01 14:24 | 51.82190 | 8.04448 | 18369 ft | 347 kts | 278° |
| 2026-05-01 14:24 | 51.82595 | 8.00611 | 17966 ft | 345 kts | 278° |
| 2026-05-01 14:24 | 51.82992 | 7.96838 | 17562 ft | 344 kts | 278° |
| 2026-05-01 14:24 | 51.83396 | 7.92987 | 17170 ft | 342 kts | 278° |
| 2026-05-01 14:25 | 51.83792 | 7.89208 | 16782 ft | 340 kts | 277° |
| 2026-05-01 14:25 | 51.84180 | 7.85444 | 16403 ft | 339 kts | 277° |
| 2026-05-01 14:25 | 51.84564 | 7.81687 | 16016 ft | 338 kts | 277° |
| 2026-05-01 14:25 | 51.84947 | 7.77954 | 15645 ft | 337 kts | 277° |
| 2026-05-01 14:26 | 51.85290 | 7.74214 | 15274 ft | 335 kts | 271° |
| 2026-05-01 14:26 | 51.84534 | 7.66964 | 14524 ft | 325 kts | 244° |
| 2026-05-01 14:26 | 51.83570 | 7.63672 | 14151 ft | 323 kts | 242° |
| 2026-05-01 14:27 | 51.82600 | 7.60397 | 13759 ft | 322 kts | 241° |
| 2026-05-01 14:27 | 51.81636 | 7.57142 | 13391 ft | 320 kts | 241° |
| 2026-05-01 14:27 | 51.80688 | 7.53945 | 13010 ft | 318 kts | 242° |
| 2026-05-01 14:28 | 51.78783 | 7.47535 | 12282 ft | 314 kts | 241° |
| 2026-05-01 14:28 | 51.77837 | 7.44358 | 11902 ft | 313 kts | 241° |
| 2026-05-01 14:28 | 51.76896 | 7.41201 | 11533 ft | 311 kts | 241° |
| 2026-05-01 14:28 | 51.75961 | 7.38072 | 11158 ft | 309 kts | 241° |
| 2026-05-01 14:29 | 51.75028 | 7.34960 | 10775 ft | 308 kts | 240° |
| 2026-05-01 14:29 | 51.74095 | 7.31855 | 10469 ft | 304 kts | 240° |
| 2026-05-01 14:30 | 51.71353 | 7.23011 | 9611 ft | 287 kts | 232° |
| 2026-05-01 14:30 | 51.70034 | 7.20653 | 9219 ft | 281 kts | 216° |
| 2026-05-01 14:30 | 51.68403 | 7.18991 | 8837 ft | 275 kts | 202° |
| 2026-05-01 14:31 | 51.64815 | 7.17061 | 7893 ft | 270 kts | 196° |
| 2026-05-01 14:31 | 51.63035 | 7.16142 | 7350 ft | 266 kts | 196° |
| 2026-05-01 14:31 | 51.61292 | 7.15241 | 6906 ft | 260 kts | 196° |
| 2026-05-01 14:31 | 51.59590 | 7.14365 | 6496 ft | 252 kts | 196° |
| 2026-05-01 14:32 | 51.57944 | 7.13519 | 6105 ft | 244 kts | 196° |
| 2026-05-01 14:32 | 51.56888 | 7.12975 | 5878 ft | 237 kts | 196° |
| 2026-05-01 14:32 | 51.54812 | 7.11905 | 5279 ft | 237 kts | 196° |
| 2026-05-01 14:32 | 51.53276 | 7.11114 | 5052 ft | 223 kts | 196° |
| 2026-05-01 14:33 | 51.51860 | 7.10384 | 4958 ft | 207 kts | 195° |
| 2026-05-01 14:33 | 51.50492 | 7.09685 | 4873 ft | 206 kts | 196° |
| 2026-05-01 14:33 | 51.49156 | 7.09002 | 4781 ft | 197 kts | 196° |
| 2026-05-01 14:33 | 51.47876 | 7.08345 | 4687 ft | 188 kts | 195° |
| 2026-05-01 14:34 | 51.46643 | 7.07713 | 4619 ft | 187 kts | 195° |
| 2026-05-01 14:34 | 51.45401 | 7.07080 | 4542 ft | 188 kts | 195° |
| 2026-05-01 14:34 | 51.44159 | 7.06444 | 4442 ft | 186 kts | 195° |
| 2026-05-01 14:34 | 51.42924 | 7.05773 | 4322 ft | 190 kts | 201° |
| 2026-05-01 14:35 | 51.41852 | 7.04510 | 4115 ft | 196 kts | 224° |
| 2026-05-01 14:35 | 51.41016 | 7.02773 | 3882 ft | 197 kts | 229° |
| 2026-05-01 14:35 | 51.40192 | 7.01014 | 3617 ft | 197 kts | 229° |
| 2026-05-01 14:35 | 51.39368 | 6.99263 | 3365 ft | 197 kts | 229° |
| 2026-05-01 14:36 | 51.38544 | 6.97517 | 3114 ft | 197 kts | 229° |
| 2026-05-01 14:36 | 51.37712 | 6.95756 | 2832 ft | 197 kts | 229° |
| 2026-05-01 14:36 | 51.36890 | 6.94015 | 2570 ft | 195 kts | 227° |
| 2026-05-01 14:36 | 51.36068 | 6.92278 | 2316 ft | 196 kts | 228° |
| 2026-05-01 14:37 | 51.35267 | 6.90583 | 2054 ft | 185 kts | 227° |
| 2026-05-01 14:37 | 51.34526 | 6.89014 | 1811 ft | 167 kts | 228° |
| 2026-05-01 14:37 | 51.33854 | 6.87595 | 1618 ft | 151 kts | 227° |
| 2026-05-01 14:37 | 51.33451 | 6.86743 | 1474 ft | 140 kts | 227° |
| 2026-05-01 14:38 | 51.32676 | 6.85115 | 1235 ft | 135 kts | 226° |
| 2026-05-01 14:38 | 51.32302 | 6.84327 | 1124 ft | 133 kts | 227° |
| 2026-05-01 14:38 | 51.31749 | 6.83163 | 960 ft | 131 kts | 226° |
| 2026-05-01 14:38 | 51.31201 | 6.82011 | 791 ft | 130 kts | 224° |
| 2026-05-01 14:39 | 51.30656 | 6.80858 | 598 ft | 129 kts | 227° |
| 2026-05-01 14:39 | 51.30114 | 6.79714 | 401 ft | 129 kts | 227° |
| 2026-05-01 14:39 | 51.29568 | 6.78568 | 215 ft | 129 kts | 226° |
| 2026-05-01 14:39 | 51.29035 | 6.77444 | 118 ft | 117 kts | 229° |
| 2026-05-01 14:40 | 51.28671 | 6.76686 | 119 ft | 54 kts | 233° |
| 2026-05-01 14:40 | 51.28497 | 6.76312 | 117 ft | 33 kts | 233° |
| 2026-05-01 14:40 | 51.28374 | 6.76085 | 114 ft | 19 kts | 216° |
| 2026-05-01 14:40 | 51.28252 | 6.76043 | 116 ft | 18 kts | 167° |
| 2026-05-01 14:41 | 51.28205 | 6.76177 | 116 ft | 17 kts | 57° |
| 2026-05-01 14:41 | 51.28277 | 6.76331 | 117 ft | 18 kts | 53° |
| 2026-05-01 14:41 | 51.28355 | 6.76494 | 116 ft | 19 kts | 52° |
| 2026-05-01 14:41 | 51.28432 | 6.76657 | 117 ft | 16 kts | 52° |
| 2026-05-01 14:42 | 51.28454 | 6.76759 | 118 ft | 10 kts | 109° |
| 2026-05-01 14:42 | 51.28399 | 6.76833 | 116 ft | 11 kts | 143° |
| 2026-05-01 14:42 | 51.28349 | 6.76924 | 117 ft | 11 kts | 95° |
| 2026-05-01 14:42 | 51.28390 | 6.77028 | 115 ft | 7 kts | 52° |
| 2026-05-01 14:43 | 51.28418 | 6.77063 | 117 ft | 5 kts | 359° |
| 2026-05-01 14:43 | 51.28449 | 6.77029 | 118 ft | 6 kts | 321° |
| 2026-05-01 14:43 | 51.28466 | 6.77008 | 118 ft | 1 kts | 323° |
| 2026-05-01 14:43 | 51.28467 | 6.77007 | 118 ft | 0 kts | 323° |